sensor_id;sensor_type;location;lat;lon;timestamp;temperature;humidity
5023;DHT22;2530;47.990;7.866;2022-12-20T00:01:55;4.50;99.90
5023;DHT22;2530;47.990;7.866;2022-12-20T00:04:20;4.50;99.90
5023;DHT22;2530;47.990;7.866;2022-12-20T00:06:46;4.50;99.90
5023;DHT22;2530;47.990;7.866;2022-12-20T00:09:11;4.50;99.90
5023;DHT22;2530;47.990;7.866;2022-12-20T00:11:39;4.40;99.90
5023;DHT22;2530;47.990;7.866;2022-12-20T00:14:05;4.50;99.90
5023;DHT22;2530;47.990;7.866;2022-12-20T00:16:31;4.40;99.90
5023;DHT22;2530;47.990;7.866;2022-12-20T00:18:59;4.50;99.90
5023;DHT22;2530;47.990;7.866;2022-12-20T00:21:26;4.50;99.90
5023;DHT22;2530;47.990;7.866;2022-12-20T00:23:52;4.50;99.90
5023;DHT22;2530;47.990;7.866;2022-12-20T00:26:20;4.40;99.90
5023;DHT22;2530;47.990;7.866;2022-12-20T00:28:46;4.40;99.90
5023;DHT22;2530;47.990;7.866;2022-12-20T00:31:14;4.40;99.90
5023;DHT22;2530;47.990;7.866;2022-12-20T00:33:43;4.50;99.90
5023;DHT22;2530;47.990;7.866;2022-12-20T00:36:09;4.60;99.90
5023;DHT22;2530;47.990;7.866;2022-12-20T00:38:35;4.60;99.90
5023;DHT22;2530;47.990;7.866;2022-12-20T00:41:03;4.60;99.90
5023;DHT22;2530;47.990;7.866;2022-12-20T00:43:29;4.60;99.90
5023;DHT22;2530;47.990;7.866;2022-12-20T00:45:55;4.60;99.90
5023;DHT22;2530;47.990;7.866;2022-12-20T00:48:21;4.60;99.90
5023;DHT22;2530;47.990;7.866;2022-12-20T00:50:46;4.60;99.90
5023;DHT22;2530;47.990;7.866;2022-12-20T00:53:12;4.60;99.90
5023;DHT22;2530;47.990;7.866;2022-12-20T00:55:44;4.50;99.90
5023;DHT22;2530;47.990;7.866;2022-12-20T00:58:11;4.60;99.90
5023;DHT22;2530;47.990;7.866;2022-12-20T01:00:37;4.70;99.90
5023;DHT22;2530;47.990;7.866;2022-12-20T01:03:03;4.70;99.90
5023;DHT22;2530;47.990;7.866;2022-12-20T01:05:29;4.70;99.90
5023;DHT22;2530;47.990;7.866;2022-12-20T01:07:54;4.60;99.90
5023;DHT22;2530;47.990;7.866;2022-12-20T01:10:20;4.60;99.90
5023;DHT22;2530;47.990;7.866;2022-12-20T01:12:45;4.70;99.90
5023;DHT22;2530;47.990;7.866;2022-12-20T01:15:11;4.60;99.90
5023;DHT22;2530;47.990;7.866;2022-12-20T01:17:37;4.60;99.90
5023;DHT22;2530;47.990;7.866;2022-12-20T01:20:04;4.70;99.90
5023;DHT22;2530;47.990;7.866;2022-12-20T01:22:30;4.70;99.90
5023;DHT22;2530;47.990;7.866;2022-12-20T01:24:55;4.60;99.90
5023;DHT22;2530;47.990;7.866;2022-12-20T01:27:21;4.70;99.90
5023;DHT22;2530;47.990;7.866;2022-12-20T01:29:46;4.60;99.90
5023;DHT22;2530;47.990;7.866;2022-12-20T01:32:12;4.60;99.90
5023;DHT22;2530;47.990;7.866;2022-12-20T01:34:37;4.60;99.90
5023;DHT22;2530;47.990;7.866;2022-12-20T01:37:03;4.70;99.90
5023;DHT22;2530;47.990;7.866;2022-12-20T01:39:28;4.70;99.90
5023;DHT22;2530;47.990;7.866;2022-12-20T01:41:54;4.80;99.90
5023;DHT22;2530;47.990;7.866;2022-12-20T01:46:47;4.70;99.90
5023;DHT22;2530;47.990;7.866;2022-12-20T01:49:23;4.60;99.90
5023;DHT22;2530;47.990;7.866;2022-12-20T01:51:59;4.70;99.90
5023;DHT22;2530;47.990;7.866;2022-12-20T01:54:31;4.70;99.90
5023;DHT22;2530;47.990;7.866;2022-12-20T01:57:02;4.80;99.90
5023;DHT22;2530;47.990;7.866;2022-12-20T01:59:31;4.80;99.90
5023;DHT22;2530;47.990;7.866;2022-12-20T02:02:03;4.80;99.90
5023;DHT22;2530;47.990;7.866;2022-12-20T02:04:29;4.80;99.90
5023;DHT22;2530;47.990;7.866;2022-12-20T02:06:54;4.90;99.90
5023;DHT22;2530;47.990;7.866;2022-12-20T02:09:22;4.90;99.90
5023;DHT22;2530;47.990;7.866;2022-12-20T02:12:02;4.80;99.90
5023;DHT22;2530;47.990;7.866;2022-12-20T02:30:52;4.80;99.90
5023;DHT22;2530;47.990;7.866;2022-12-20T02:33:20;4.80;99.90
5023;DHT22;2530;47.990;7.866;2022-12-20T02:35:46;4.80;99.90
5023;DHT22;2530;47.990;7.866;2022-12-20T02:41:19;4.90;99.90
5023;DHT22;2530;47.990;7.866;2022-12-20T02:43:49;4.80;99.90
5023;DHT22;2530;47.990;7.866;2022-12-20T02:46:35;4.80;99.90
5023;DHT22;2530;47.990;7.866;2022-12-20T02:49:08;4.80;99.90
5023;DHT22;2530;47.990;7.866;2022-12-20T02:51:36;4.90;99.90
5023;DHT22;2530;47.990;7.866;2022-12-20T02:54:02;5.00;99.90
5023;DHT22;2530;47.990;7.866;2022-12-20T02:59:34;5.10;99.90
5023;DHT22;2530;47.990;7.866;2022-12-20T03:02:01;5.00;99.90
5023;DHT22;2530;47.990;7.866;2022-12-20T03:04:30;5.10;99.90
5023;DHT22;2530;47.990;7.866;2022-12-20T03:09:26;5.10;99.90
5023;DHT22;2530;47.990;7.866;2022-12-20T03:11:52;5.10;99.90
5023;DHT22;2530;47.990;7.866;2022-12-20T03:14:18;5.00;99.90
5023;DHT22;2530;47.990;7.866;2022-12-20T03:16:44;4.90;99.90
5023;DHT22;2530;47.990;7.866;2022-12-20T03:19:10;5.00;99.90
5023;DHT22;2530;47.990;7.866;2022-12-20T03:21:35;4.90;99.90
5023;DHT22;2530;47.990;7.866;2022-12-20T03:24:01;4.90;99.90
5023;DHT22;2530;47.990;7.866;2022-12-20T03:26:26;4.90;99.90
5023;DHT22;2530;47.990;7.866;2022-12-20T03:28:52;4.80;99.90
5023;DHT22;2530;47.990;7.866;2022-12-20T03:31:18;4.90;99.90
5023;DHT22;2530;47.990;7.866;2022-12-20T03:33:43;4.90;99.90
5023;DHT22;2530;47.990;7.866;2022-12-20T03:36:09;4.90;99.90
5023;DHT22;2530;47.990;7.866;2022-12-20T03:38:34;4.90;99.90
5023;DHT22;2530;47.990;7.866;2022-12-20T03:41:00;4.90;99.90
5023;DHT22;2530;47.990;7.866;2022-12-20T03:43:25;4.90;99.90
5023;DHT22;2530;47.990;7.866;2022-12-20T03:45:51;5.00;99.90
5023;DHT22;2530;47.990;7.866;2022-12-20T03:48:16;5.00;99.90
5023;DHT22;2530;47.990;7.866;2022-12-20T03:50:42;4.90;99.90
5023;DHT22;2530;47.990;7.866;2022-12-20T03:53:07;4.90;99.90
5023;DHT22;2530;47.990;7.866;2022-12-20T03:55:33;4.90;99.90
5023;DHT22;2530;47.990;7.866;2022-12-20T03:57:58;4.90;99.90
5023;DHT22;2530;47.990;7.866;2022-12-20T04:00:24;5.00;99.90
5023;DHT22;2530;47.990;7.866;2022-12-20T04:02:50;5.10;99.90
5023;DHT22;2530;47.990;7.866;2022-12-20T04:05:16;5.00;99.90
5023;DHT22;2530;47.990;7.866;2022-12-20T04:07:42;5.00;99.90
5023;DHT22;2530;47.990;7.866;2022-12-20T04:10:07;4.90;99.90
5023;DHT22;2530;47.990;7.866;2022-12-20T04:12:33;4.90;99.90
5023;DHT22;2530;47.990;7.866;2022-12-20T04:14:59;4.90;99.90
5023;DHT22;2530;47.990;7.866;2022-12-20T04:17:24;5.10;99.90
5023;DHT22;2530;47.990;7.866;2022-12-20T04:19:50;5.10;99.90
5023;DHT22;2530;47.990;7.866;2022-12-20T04:22:15;5.10;99.90
5023;DHT22;2530;47.990;7.866;2022-12-20T04:24:41;5.20;99.90
5023;DHT22;2530;47.990;7.866;2022-12-20T04:27:06;5.10;99.90
5023;DHT22;2530;47.990;7.866;2022-12-20T04:29:32;5.10;99.90
5023;DHT22;2530;47.990;7.866;2022-12-20T04:31:57;5.00;99.90
5023;DHT22;2530;47.990;7.866;2022-12-20T04:34:23;5.00;99.90
5023;DHT22;2530;47.990;7.866;2022-12-20T04:36:48;5.10;99.90
5023;DHT22;2530;47.990;7.866;2022-12-20T04:39:14;5.20;99.90
5023;DHT22;2530;47.990;7.866;2022-12-20T04:41:39;5.20;99.90
5023;DHT22;2530;47.990;7.866;2022-12-20T04:44:05;5.20;99.90
5023;DHT22;2530;47.990;7.866;2022-12-20T04:46:30;5.10;99.90
5023;DHT22;2530;47.990;7.866;2022-12-20T04:48:56;5.20;99.90
5023;DHT22;2530;47.990;7.866;2022-12-20T04:51:21;5.20;99.90
5023;DHT22;2530;47.990;7.866;2022-12-20T04:53:47;5.20;99.90
5023;DHT22;2530;47.990;7.866;2022-12-20T04:56:18;5.10;99.90
5023;DHT22;2530;47.990;7.866;2022-12-20T04:58:45;5.10;99.90
5023;DHT22;2530;47.990;7.866;2022-12-20T05:01:11;5.10;99.90
5023;DHT22;2530;47.990;7.866;2022-12-20T05:03:37;5.10;99.90
5023;DHT22;2530;47.990;7.866;2022-12-20T05:06:03;5.20;99.90
5023;DHT22;2530;47.990;7.866;2022-12-20T05:08:29;5.30;99.90
5023;DHT22;2530;47.990;7.866;2022-12-20T05:10:54;5.30;99.90
5023;DHT22;2530;47.990;7.866;2022-12-20T05:13:20;5.10;99.90
5023;DHT22;2530;47.990;7.866;2022-12-20T05:15:50;5.10;99.90
5023;DHT22;2530;47.990;7.866;2022-12-20T05:18:16;5.10;99.90
5023;DHT22;2530;47.990;7.866;2022-12-20T05:20:42;5.10;99.90
5023;DHT22;2530;47.990;7.866;2022-12-20T05:23:09;5.10;99.90
5023;DHT22;2530;47.990;7.866;2022-12-20T05:26:04;5.10;99.90
5023;DHT22;2530;47.990;7.866;2022-12-20T05:28:41;5.10;99.90
5023;DHT22;2530;47.990;7.866;2022-12-20T05:31:07;5.10;99.90
5023;DHT22;2530;47.990;7.866;2022-12-20T05:33:32;5.20;99.90
5023;DHT22;2530;47.990;7.866;2022-12-20T05:35:58;5.20;99.90
5023;DHT22;2530;47.990;7.866;2022-12-20T05:38:23;5.20;99.90
5023;DHT22;2530;47.990;7.866;2022-12-20T05:40:49;5.20;99.90
5023;DHT22;2530;47.990;7.866;2022-12-20T05:43:16;5.20;99.90
5023;DHT22;2530;47.990;7.866;2022-12-20T05:45:50;5.20;99.90
5023;DHT22;2530;47.990;7.866;2022-12-20T05:48:17;5.20;99.90
5023;DHT22;2530;47.990;7.866;2022-12-20T05:50:43;5.30;99.90
5023;DHT22;2530;47.990;7.866;2022-12-20T05:53:11;5.40;99.90
5023;DHT22;2530;47.990;7.866;2022-12-20T05:55:37;5.40;99.90
5023;DHT22;2530;47.990;7.866;2022-12-20T05:58:05;5.40;99.90
5023;DHT22;2530;47.990;7.866;2022-12-20T06:00:31;5.30;99.90
5023;DHT22;2530;47.990;7.866;2022-12-20T06:02:56;5.40;99.90
5023;DHT22;2530;47.990;7.866;2022-12-20T06:05:22;5.40;99.90
5023;DHT22;2530;47.990;7.866;2022-12-20T06:07:47;5.40;99.90
5023;DHT22;2530;47.990;7.866;2022-12-20T06:10:13;5.50;99.90
5023;DHT22;2530;47.990;7.866;2022-12-20T06:12:38;5.50;99.90
5023;DHT22;2530;47.990;7.866;2022-12-20T06:15:04;5.60;99.90
5023;DHT22;2530;47.990;7.866;2022-12-20T06:17:30;5.50;99.90
5023;DHT22;2530;47.990;7.866;2022-12-20T06:19:55;5.50;99.90
5023;DHT22;2530;47.990;7.866;2022-12-20T06:22:21;5.40;99.90
5023;DHT22;2530;47.990;7.866;2022-12-20T06:24:47;5.40;99.90
5023;DHT22;2530;47.990;7.866;2022-12-20T06:27:12;5.40;99.90
5023;DHT22;2530;47.990;7.866;2022-12-20T06:29:38;5.50;99.90
5023;DHT22;2530;47.990;7.866;2022-12-20T06:32:04;5.60;99.90
5023;DHT22;2530;47.990;7.866;2022-12-20T06:34:31;5.50;99.90
5023;DHT22;2530;47.990;7.866;2022-12-20T06:36:56;5.40;99.90
5023;DHT22;2530;47.990;7.866;2022-12-20T06:39:22;5.40;99.90
5023;DHT22;2530;47.990;7.866;2022-12-20T06:41:47;5.50;99.90
5023;DHT22;2530;47.990;7.866;2022-12-20T06:44:13;5.60;99.90
5023;DHT22;2530;47.990;7.866;2022-12-20T06:46:38;5.50;99.90
5023;DHT22;2530;47.990;7.866;2022-12-20T06:49:04;5.50;99.90
5023;DHT22;2530;47.990;7.866;2022-12-20T06:51:29;5.50;99.90
5023;DHT22;2530;47.990;7.866;2022-12-20T06:53:55;5.40;99.90
5023;DHT22;2530;47.990;7.866;2022-12-20T06:56:20;5.40;99.90
5023;DHT22;2530;47.990;7.866;2022-12-20T06:58:46;5.50;99.90
5023;DHT22;2530;47.990;7.866;2022-12-20T07:01:12;5.40;99.90
5023;DHT22;2530;47.990;7.866;2022-12-20T07:03:37;5.40;99.90
5023;DHT22;2530;47.990;7.866;2022-12-20T07:06:03;5.40;99.90
5023;DHT22;2530;47.990;7.866;2022-12-20T07:08:28;5.30;99.90
5023;DHT22;2530;47.990;7.866;2022-12-20T07:10:54;5.30;99.90
5023;DHT22;2530;47.990;7.866;2022-12-20T07:13:20;5.40;99.90
5023;DHT22;2530;47.990;7.866;2022-12-20T07:15:46;5.50;99.90
5023;DHT22;2530;47.990;7.866;2022-12-20T07:18:11;5.40;99.90
5023;DHT22;2530;47.990;7.866;2022-12-20T07:20:37;5.40;99.90
5023;DHT22;2530;47.990;7.866;2022-12-20T07:23:03;5.40;99.90
5023;DHT22;2530;47.990;7.866;2022-12-20T07:25:28;5.30;99.90
5023;DHT22;2530;47.990;7.866;2022-12-20T07:27:54;5.30;99.90
5023;DHT22;2530;47.990;7.866;2022-12-20T07:30:20;5.40;99.90
5023;DHT22;2530;47.990;7.866;2022-12-20T07:32:46;5.40;99.90
5023;DHT22;2530;47.990;7.866;2022-12-20T07:35:13;5.40;99.90
5023;DHT22;2530;47.990;7.866;2022-12-20T07:37:39;5.80;99.90
5023;DHT22;2530;47.990;7.866;2022-12-20T07:40:06;5.80;99.90
5023;DHT22;2530;47.990;7.866;2022-12-20T07:42:32;5.70;99.90
5023;DHT22;2530;47.990;7.866;2022-12-20T07:44:57;5.70;99.90
5023;DHT22;2530;47.990;7.866;2022-12-20T07:47:23;5.60;99.90
5023;DHT22;2530;47.990;7.866;2022-12-20T07:49:48;5.50;99.90
5023;DHT22;2530;47.990;7.866;2022-12-20T07:52:15;5.50;99.90
5023;DHT22;2530;47.990;7.866;2022-12-20T07:54:45;5.40;99.90
5023;DHT22;2530;47.990;7.866;2022-12-20T07:57:19;5.40;99.90
5023;DHT22;2530;47.990;7.866;2022-12-20T07:59:50;5.40;99.90
5023;DHT22;2530;47.990;7.866;2022-12-20T08:02:26;5.60;99.90
5023;DHT22;2530;47.990;7.866;2022-12-20T08:04:54;5.50;99.90
5023;DHT22;2530;47.990;7.866;2022-12-20T08:07:20;5.40;99.90
5023;DHT22;2530;47.990;7.866;2022-12-20T08:09:46;5.40;99.90
5023;DHT22;2530;47.990;7.866;2022-12-20T08:12:15;5.50;99.90
5023;DHT22;2530;47.990;7.866;2022-12-20T08:14:42;5.60;99.90
5023;DHT22;2530;47.990;7.866;2022-12-20T08:17:07;5.70;99.90
5023;DHT22;2530;47.990;7.866;2022-12-20T08:19:33;5.80;99.90
5023;DHT22;2530;47.990;7.866;2022-12-20T08:21:58;5.80;99.90
5023;DHT22;2530;47.990;7.866;2022-12-20T08:24:24;5.80;99.90
5023;DHT22;2530;47.990;7.866;2022-12-20T08:26:50;5.90;99.90
5023;DHT22;2530;47.990;7.866;2022-12-20T08:29:15;6.00;99.90
5023;DHT22;2530;47.990;7.866;2022-12-20T08:31:41;6.10;99.90
5023;DHT22;2530;47.990;7.866;2022-12-20T08:34:07;6.10;99.90
5023;DHT22;2530;47.990;7.866;2022-12-20T08:36:33;6.10;99.90
5023;DHT22;2530;47.990;7.866;2022-12-20T08:39:04;6.20;99.90
5023;DHT22;2530;47.990;7.866;2022-12-20T08:41:30;6.30;99.90
5023;DHT22;2530;47.990;7.866;2022-12-20T08:43:56;6.30;99.90
5023;DHT22;2530;47.990;7.866;2022-12-20T08:46:22;6.20;99.90
5023;DHT22;2530;47.990;7.866;2022-12-20T08:48:47;6.20;99.90
5023;DHT22;2530;47.990;7.866;2022-12-20T08:51:13;6.40;99.90
5023;DHT22;2530;47.990;7.866;2022-12-20T08:53:39;6.50;99.90
5023;DHT22;2530;47.990;7.866;2022-12-20T08:56:08;6.60;99.90
5023;DHT22;2530;47.990;7.866;2022-12-20T08:58:35;6.80;99.90
5023;DHT22;2530;47.990;7.866;2022-12-20T09:01:02;7.00;99.90
5023;DHT22;2530;47.990;7.866;2022-12-20T09:03:29;7.10;99.90
5023;DHT22;2530;47.990;7.866;2022-12-20T09:05:56;7.10;99.90
5023;DHT22;2530;47.990;7.866;2022-12-20T09:08:22;7.10;99.90
5023;DHT22;2530;47.990;7.866;2022-12-20T09:10:48;7.20;99.90
5023;DHT22;2530;47.990;7.866;2022-12-20T09:13:14;7.20;99.90
5023;DHT22;2530;47.990;7.866;2022-12-20T09:15:39;7.30;99.90
5023;DHT22;2530;47.990;7.866;2022-12-20T09:18:06;7.30;99.90
5023;DHT22;2530;47.990;7.866;2022-12-20T09:20:32;7.40;99.90
5023;DHT22;2530;47.990;7.866;2022-12-20T09:22:58;7.40;99.90
5023;DHT22;2530;47.990;7.866;2022-12-20T09:25:25;7.50;99.90
5023;DHT22;2530;47.990;7.866;2022-12-20T09:27:52;7.50;99.90
5023;DHT22;2530;47.990;7.866;2022-12-20T09:30:21;7.60;99.90
5023;DHT22;2530;47.990;7.866;2022-12-20T09:32:46;7.60;99.90
5023;DHT22;2530;47.990;7.866;2022-12-20T09:35:12;7.60;99.90
5023;DHT22;2530;47.990;7.866;2022-12-20T09:37:37;7.60;99.90
5023;DHT22;2530;47.990;7.866;2022-12-20T09:40:03;7.70;99.90
5023;DHT22;2530;47.990;7.866;2022-12-20T09:42:29;7.80;99.90
5023;DHT22;2530;47.990;7.866;2022-12-20T09:45:02;7.80;99.90
5023;DHT22;2530;47.990;7.866;2022-12-20T09:47:30;7.80;99.90
5023;DHT22;2530;47.990;7.866;2022-12-20T09:49:56;7.80;99.90
5023;DHT22;2530;47.990;7.866;2022-12-20T09:58:13;7.90;99.90
5023;DHT22;2530;47.990;7.866;2022-12-20T10:00:42;8.10;99.90
5023;DHT22;2530;47.990;7.866;2022-12-20T10:03:17;8.00;99.90
5023;DHT22;2530;47.990;7.866;2022-12-20T10:05:50;8.00;99.90
5023;DHT22;2530;47.990;7.866;2022-12-20T10:10:51;8.10;99.90
5023;DHT22;2530;47.990;7.866;2022-12-20T10:13:55;8.10;99.90
5023;DHT22;2530;47.990;7.866;2022-12-20T10:16:42;8.20;99.90
5023;DHT22;2530;47.990;7.866;2022-12-20T10:19:39;8.30;99.90
5023;DHT22;2530;47.990;7.866;2022-12-20T10:22:15;8.40;99.90
5023;DHT22;2530;47.990;7.866;2022-12-20T10:25:26;8.50;99.90
5023;DHT22;2530;47.990;7.866;2022-12-20T10:27:55;8.50;99.90
5023;DHT22;2530;47.990;7.866;2022-12-20T10:30:26;8.40;99.90
5023;DHT22;2530;47.990;7.866;2022-12-20T10:32:54;8.40;99.90
5023;DHT22;2530;47.990;7.866;2022-12-20T10:35:29;8.60;99.90
5023;DHT22;2530;47.990;7.866;2022-12-20T10:38:08;8.50;99.90
5023;DHT22;2530;47.990;7.866;2022-12-20T10:43:21;8.50;99.90
5023;DHT22;2530;47.990;7.866;2022-12-20T10:46:07;8.50;99.90
5023;DHT22;2530;47.990;7.866;2022-12-20T10:48:40;8.60;99.90
5023;DHT22;2530;47.990;7.866;2022-12-20T10:53:35;8.70;99.90
5023;DHT22;2530;47.990;7.866;2022-12-20T10:56:22;8.80;99.90
5023;DHT22;2530;47.990;7.866;2022-12-20T10:58:58;9.10;99.90
5023;DHT22;2530;47.990;7.866;2022-12-20T11:01:33;9.50;99.90
5023;DHT22;2530;47.990;7.866;2022-12-20T11:04:27;9.80;99.90
5023;DHT22;2530;47.990;7.866;2022-12-20T11:06:53;10.20;99.90
5023;DHT22;2530;47.990;7.866;2022-12-20T11:09:31;10.60;99.90
5023;DHT22;2530;47.990;7.866;2022-12-20T11:12:12;10.80;99.90
5023;DHT22;2530;47.990;7.866;2022-12-20T11:14:40;11.00;99.90
5023;DHT22;2530;47.990;7.866;2022-12-20T11:17:40;11.30;99.90
5023;DHT22;2530;47.990;7.866;2022-12-20T11:22:54;11.00;99.90
5023;DHT22;2530;47.990;7.866;2022-12-20T11:25:28;10.80;99.90
5023;DHT22;2530;47.990;7.866;2022-12-20T11:30:40;10.70;99.90
5023;DHT22;2530;47.990;7.866;2022-12-20T11:33:17;10.70;99.90
5023;DHT22;2530;47.990;7.866;2022-12-20T11:35:54;10.60;99.90
5023;DHT22;2530;47.990;7.866;2022-12-20T11:55:44;10.50;99.90
5023;DHT22;2530;47.990;7.866;2022-12-20T11:58:19;10.50;99.90
5023;DHT22;2530;47.990;7.866;2022-12-20T12:01:06;10.60;99.90
5023;DHT22;2530;47.990;7.866;2022-12-20T12:03:35;10.80;99.90
5023;DHT22;2530;47.990;7.866;2022-12-20T12:06:20;11.70;99.90
5023;DHT22;2530;47.990;7.866;2022-12-20T12:12:09;13.50;99.90
5023;DHT22;2530;47.990;7.866;2022-12-20T12:20:34;14.80;98.80
5023;DHT22;2530;47.990;7.866;2022-12-20T12:26:27;13.70;99.90
5023;DHT22;2530;47.990;7.866;2022-12-20T12:29:02;13.00;99.90
5023;DHT22;2530;47.990;7.866;2022-12-20T12:40:39;12.50;99.90
5023;DHT22;2530;47.990;7.866;2022-12-20T12:43:34;12.60;99.90
5023;DHT22;2530;47.990;7.866;2022-12-20T12:46:10;12.60;99.90
5023;DHT22;2530;47.990;7.866;2022-12-20T12:48:47;12.60;99.90
5023;DHT22;2530;47.990;7.866;2022-12-20T12:51:31;12.60;99.90
5023;DHT22;2530;47.990;7.866;2022-12-20T12:56:39;12.50;99.90
5023;DHT22;2530;47.990;7.866;2022-12-20T13:01:51;12.90;99.90
5023;DHT22;2530;47.990;7.866;2022-12-20T13:04:24;12.80;99.90
5023;DHT22;2530;47.990;7.866;2022-12-20T13:11:50;12.70;99.90
5023;DHT22;2530;47.990;7.866;2022-12-20T13:16:42;13.00;99.90
5023;DHT22;2530;47.990;7.866;2022-12-20T13:21:52;13.10;99.90
5023;DHT22;2530;47.990;7.866;2022-12-20T13:24:37;13.00;99.90
5023;DHT22;2530;47.990;7.866;2022-12-20T13:27:21;12.90;99.90
5023;DHT22;2530;47.990;7.866;2022-12-20T13:43:11;12.20;99.90
5023;DHT22;2530;47.990;7.866;2022-12-20T13:45:44;12.20;99.90
5023;DHT22;2530;47.990;7.866;2022-12-20T13:48:14;12.20;99.90
5023;DHT22;2530;47.990;7.866;2022-12-20T13:50:48;12.20;99.90
5023;DHT22;2530;47.990;7.866;2022-12-20T13:53:17;12.40;99.90
5023;DHT22;2530;47.990;7.866;2022-12-20T13:55:43;12.50;99.90
5023;DHT22;2530;47.990;7.866;2022-12-20T13:58:16;12.80;99.90
5023;DHT22;2530;47.990;7.866;2022-12-20T14:00:43;12.80;99.90
5023;DHT22;2530;47.990;7.866;2022-12-20T14:03:25;12.70;99.90
5023;DHT22;2530;47.990;7.866;2022-12-20T14:06:02;12.50;99.90
5023;DHT22;2530;47.990;7.866;2022-12-20T14:08:32;12.40;99.90
5023;DHT22;2530;47.990;7.866;2022-12-20T14:11:12;12.40;99.90
5023;DHT22;2530;47.990;7.866;2022-12-20T14:13:38;12.50;99.90
5023;DHT22;2530;47.990;7.866;2022-12-20T14:16:15;12.50;99.90
5023;DHT22;2530;47.990;7.866;2022-12-20T14:18:45;12.60;99.90
5023;DHT22;2530;47.990;7.866;2022-12-20T14:21:12;12.50;99.90
5023;DHT22;2530;47.990;7.866;2022-12-20T14:23:44;12.40;99.90
5023;DHT22;2530;47.990;7.866;2022-12-20T14:26:15;12.30;99.90
5023;DHT22;2530;47.990;7.866;2022-12-20T14:28:46;12.20;99.90
5023;DHT22;2530;47.990;7.866;2022-12-20T14:31:44;12.00;99.90
5023;DHT22;2530;47.990;7.866;2022-12-20T14:36:39;11.80;99.90
5023;DHT22;2530;47.990;7.866;2022-12-20T14:39:28;11.70;99.90
5023;DHT22;2530;47.990;7.866;2022-12-20T14:44:29;11.30;99.90
5023;DHT22;2530;47.990;7.866;2022-12-20T14:46:56;11.10;99.90
5023;DHT22;2530;47.990;7.866;2022-12-20T14:49:28;11.00;99.90
5023;DHT22;2530;47.990;7.866;2022-12-20T14:52:28;11.00;99.90
5023;DHT22;2530;47.990;7.866;2022-12-20T14:57:31;10.80;99.90
5023;DHT22;2530;47.990;7.866;2022-12-20T15:10:53;10.40;99.90
5023;DHT22;2530;47.990;7.866;2022-12-20T15:13:23;10.40;99.90
5023;DHT22;2530;47.990;7.866;2022-12-20T15:15:49;10.30;99.90
5023;DHT22;2530;47.990;7.866;2022-12-20T15:18:17;10.20;99.90
5023;DHT22;2530;47.990;7.866;2022-12-20T15:20:48;10.10;99.90
5023;DHT22;2530;47.990;7.866;2022-12-20T15:23:20;10.10;99.90
5023;DHT22;2530;47.990;7.866;2022-12-20T15:25:46;10.10;99.90
5023;DHT22;2530;47.990;7.866;2022-12-20T15:28:18;10.10;99.90
5023;DHT22;2530;47.990;7.866;2022-12-20T15:30:45;10.10;99.90
5023;DHT22;2530;47.990;7.866;2022-12-20T15:33:18;10.10;99.90
5023;DHT22;2530;47.990;7.866;2022-12-20T15:35:45;10.00;99.90
5023;DHT22;2530;47.990;7.866;2022-12-20T15:38:21;9.90;99.90
5023;DHT22;2530;47.990;7.866;2022-12-20T15:40:50;9.90;99.90
5023;DHT22;2530;47.990;7.866;2022-12-20T15:43:18;9.80;99.90
5023;DHT22;2530;47.990;7.866;2022-12-20T15:45:47;9.80;99.90
5023;DHT22;2530;47.990;7.866;2022-12-20T15:48:20;9.80;99.90
5023;DHT22;2530;47.990;7.866;2022-12-20T15:50:52;9.80;99.90
5023;DHT22;2530;47.990;7.866;2022-12-20T15:53:22;9.80;99.90
5023;DHT22;2530;47.990;7.866;2022-12-20T15:55:51;9.70;99.90
5023;DHT22;2530;47.990;7.866;2022-12-20T15:58:17;9.70;99.90
5023;DHT22;2530;47.990;7.866;2022-12-20T16:00:42;9.60;99.90
5023;DHT22;2530;47.990;7.866;2022-12-20T16:03:26;9.60;99.90
5023;DHT22;2530;47.990;7.866;2022-12-20T16:05:54;9.50;99.90
5023;DHT22;2530;47.990;7.866;2022-12-20T16:08:20;9.50;99.90
5023;DHT22;2530;47.990;7.866;2022-12-20T16:10:47;9.40;99.90
5023;DHT22;2530;47.990;7.866;2022-12-20T16:13:15;9.40;99.90
5023;DHT22;2530;47.990;7.866;2022-12-20T16:15:41;9.40;99.90
5023;DHT22;2530;47.990;7.866;2022-12-20T16:18:07;9.40;99.90
5023;DHT22;2530;47.990;7.866;2022-12-20T16:20:32;9.40;99.90
5023;DHT22;2530;47.990;7.866;2022-12-20T16:22:58;9.40;99.90
5023;DHT22;2530;47.990;7.866;2022-12-20T16:25:41;9.30;99.90
5023;DHT22;2530;47.990;7.866;2022-12-20T16:28:07;9.30;99.90
5023;DHT22;2530;47.990;7.866;2022-12-20T16:30:32;9.30;99.90
5023;DHT22;2530;47.990;7.866;2022-12-20T16:32:59;9.20;99.90
5023;DHT22;2530;47.990;7.866;2022-12-20T16:37:53;9.00;99.90
5023;DHT22;2530;47.990;7.866;2022-12-20T16:40:21;8.90;99.90
5023;DHT22;2530;47.990;7.866;2022-12-20T16:42:47;9.00;99.90
5023;DHT22;2530;47.990;7.866;2022-12-20T16:45:16;9.10;99.90
5023;DHT22;2530;47.990;7.866;2022-12-20T16:47:43;9.00;99.90
5023;DHT22;2530;47.990;7.866;2022-12-20T16:50:11;9.00;99.90
5023;DHT22;2530;47.990;7.866;2022-12-20T16:52:37;9.00;99.90
5023;DHT22;2530;47.990;7.866;2022-12-20T16:55:03;8.90;99.90
5023;DHT22;2530;47.990;7.866;2022-12-20T16:57:32;8.80;99.90
5023;DHT22;2530;47.990;7.866;2022-12-20T16:59:57;8.80;99.90
5023;DHT22;2530;47.990;7.866;2022-12-20T17:02:28;8.90;99.90
5023;DHT22;2530;47.990;7.866;2022-12-20T17:04:54;8.80;99.90
5023;DHT22;2530;47.990;7.866;2022-12-20T17:07:20;8.80;99.90
5023;DHT22;2530;47.990;7.866;2022-12-20T17:09:45;8.70;99.90
5023;DHT22;2530;47.990;7.866;2022-12-20T17:12:16;8.70;99.90
5023;DHT22;2530;47.990;7.866;2022-12-20T17:14:41;8.60;99.90
5023;DHT22;2530;47.990;7.866;2022-12-20T17:17:07;8.70;99.90
5023;DHT22;2530;47.990;7.866;2022-12-20T17:19:32;8.60;99.90
5023;DHT22;2530;47.990;7.866;2022-12-20T17:21:58;8.60;99.90
5023;DHT22;2530;47.990;7.866;2022-12-20T17:24:24;8.60;99.90
5023;DHT22;2530;47.990;7.866;2022-12-20T17:26:50;8.50;99.90
5023;DHT22;2530;47.990;7.866;2022-12-20T17:29:16;8.50;99.90
5023;DHT22;2530;47.990;7.866;2022-12-20T17:31:44;8.70;99.90
5023;DHT22;2530;47.990;7.866;2022-12-20T17:34:21;8.70;99.90
5023;DHT22;2530;47.990;7.866;2022-12-20T17:36:49;8.70;99.90
5023;DHT22;2530;47.990;7.866;2022-12-20T17:39:15;8.60;99.90
5023;DHT22;2530;47.990;7.866;2022-12-20T17:41:41;8.60;99.90
5023;DHT22;2530;47.990;7.866;2022-12-20T17:44:21;8.60;99.90
5023;DHT22;2530;47.990;7.866;2022-12-20T17:46:48;8.60;99.90
5023;DHT22;2530;47.990;7.866;2022-12-20T17:49:14;8.50;99.90
5023;DHT22;2530;47.990;7.866;2022-12-20T17:51:40;8.60;99.90
5023;DHT22;2530;47.990;7.866;2022-12-20T17:54:16;8.60;99.90
5023;DHT22;2530;47.990;7.866;2022-12-20T17:56:42;8.60;99.90
5023;DHT22;2530;47.990;7.866;2022-12-20T17:59:10;8.60;99.90
5023;DHT22;2530;47.990;7.866;2022-12-20T18:01:36;8.60;99.90
5023;DHT22;2530;47.990;7.866;2022-12-20T18:04:05;8.70;99.90
5023;DHT22;2530;47.990;7.866;2022-12-20T18:06:32;8.60;99.90
5023;DHT22;2530;47.990;7.866;2022-12-20T18:08:58;8.50;99.90
5023;DHT22;2530;47.990;7.866;2022-12-20T18:11:26;8.60;99.90
5023;DHT22;2530;47.990;7.866;2022-12-20T18:13:54;8.60;99.90
5023;DHT22;2530;47.990;7.866;2022-12-20T18:16:23;8.60;99.90
5023;DHT22;2530;47.990;7.866;2022-12-20T18:18:49;8.50;99.90
5023;DHT22;2530;47.990;7.866;2022-12-20T18:21:17;8.40;99.90
5023;DHT22;2530;47.990;7.866;2022-12-20T18:23:44;8.40;99.90
5023;DHT22;2530;47.990;7.866;2022-12-20T18:26:22;8.30;99.90
5023;DHT22;2530;47.990;7.866;2022-12-20T18:28:54;8.30;99.90
5023;DHT22;2530;47.990;7.866;2022-12-20T18:31:21;8.20;99.90
5023;DHT22;2530;47.990;7.866;2022-12-20T18:33:49;8.20;99.90
5023;DHT22;2530;47.990;7.866;2022-12-20T18:36:18;8.10;99.90
5023;DHT22;2530;47.990;7.866;2022-12-20T18:38:45;8.20;99.90
5023;DHT22;2530;47.990;7.866;2022-12-20T18:41:13;8.20;99.90